createdAt,value
2018-09-14T00:01:03.095Z,23.79
2018-09-14T00:02:12.257Z,23.83
2018-09-14T00:03:21.923Z,23.8
2018-09-14T00:04:31.842Z,23.83
2018-09-14T00:05:41.264Z,23.79
2018-09-14T00:06:50.948Z,23.76
2018-09-14T00:08:00.364Z,23.72
2018-09-14T00:09:10.063Z,23.79
2018-09-14T00:10:19.814Z,23.88
2018-09-14T00:11:29.003Z,23.8
2018-09-14T00:12:38.467Z,23.69
2018-09-14T00:13:48.142Z,23.8
2018-09-14T00:14:57.856Z,23.76
2018-09-14T00:16:07.358Z,23.8
2018-09-14T00:17:16.790Z,23.72
2018-09-14T00:18:26.731Z,23.84
2018-09-14T00:19:36.416Z,23.85
2018-09-14T00:20:45.617Z,23.73
2018-09-14T00:21:55.039Z,23.7
2018-09-14T00:23:03.966Z,23.9
2018-09-14T00:24:13.654Z,23.75
2018-09-14T00:25:23.101Z,23.88
2018-09-14T00:26:32.554Z,23.75
2018-09-14T00:27:41.520Z,23.78
2018-09-14T00:28:50.941Z,23.83
2018-09-14T00:30:00.368Z,23.79
2018-09-14T00:31:09.547Z,23.79
2018-09-14T00:32:19.225Z,23.84
2018-09-14T00:33:28.427Z,23.73
2018-09-14T00:34:37.604Z,23.69
2018-09-14T00:35:47.282Z,23.72
2018-09-14T00:36:56.454Z,23.69
2018-09-14T00:38:06.159Z,23.79
2018-09-14T00:39:15.894Z,23.63
2018-09-14T00:40:25.315Z,23.66
2018-09-14T00:41:34.483Z,23.68
2018-09-14T00:42:44.165Z,23.6
2018-09-14T00:43:53.649Z,23.65
2018-09-14T00:45:03.142Z,23.53
2018-09-14T00:46:13.087Z,23.6
2018-09-14T00:47:21.992Z,23.58
2018-09-14T00:48:31.942Z,23.58
2018-09-14T00:49:41.370Z,23.58
2018-09-14T00:50:50.548Z,23.58
2018-09-14T00:52:00.234Z,23.54
2018-09-14T00:53:09.146Z,23.57
2018-09-14T00:54:18.838Z,23.58
2018-09-14T00:55:28.534Z,23.54
2018-09-14T00:56:38.209Z,23.53
2018-09-14T00:57:47.382Z,23.54
2018-09-14T00:58:57.067Z,23.54
2018-09-14T01:00:06.496Z,23.55
2018-09-14T01:01:16.173Z,23.53
2018-09-14T01:02:25.592Z,23.47
2018-09-14T01:03:35.263Z,23.6
2018-09-14T01:04:44.724Z,23.55
2018-09-14T01:05:54.157Z,23.54
2018-09-14T01:07:03.320Z,23.5
2018-09-14T01:08:12.766Z,23.5
2018-09-14T01:09:21.936Z,23.61
2018-09-14T01:10:31.112Z,23.57
2018-09-14T01:11:40.540Z,23.58
2018-09-14T01:12:49.731Z,23.58
2018-09-14T01:13:58.634Z,23.57
2018-09-14T01:15:07.816Z,23.55
2018-09-14T01:16:16.976Z,23.58
2018-09-14T01:17:26.587Z,23.53
2018-09-14T01:18:35.766Z,23.51
2018-09-14T01:19:45.723Z,23.53
2018-09-14T01:20:55.427Z,23.55
2018-09-14T01:22:04.979Z,23.5
2018-09-14T01:23:13.895Z,23.57
2018-09-14T01:24:23.078Z,23.54
2018-09-14T01:25:32.753Z,23.53
2018-09-14T01:26:41.927Z,23.5
2018-09-14T01:27:51.619Z,23.46
2018-09-14T01:29:00.785Z,23.48
2018-09-14T01:30:10.468Z,23.42
2018-09-14T01:31:19.883Z,23.43
2018-09-14T01:32:28.779Z,23.48
2018-09-14T01:33:37.777Z,23.4
2018-09-14T01:34:46.674Z,23.39
2018-09-14T01:35:56.115Z,23.46
2018-09-14T01:37:05.523Z,23.33
2018-09-14T01:38:14.771Z,23.36
2018-09-14T01:39:23.736Z,23.39
2018-09-14T01:40:32.901Z,23.32
2018-09-14T01:41:42.061Z,23.35
2018-09-14T01:42:51.766Z,23.36
2018-09-14T01:44:01.209Z,23.39
2018-09-14T01:45:10.644Z,23.39
2018-09-14T01:46:19.664Z,23.27
2018-09-14T01:47:29.346Z,23.4
2018-09-14T01:48:38.837Z,23.39
2018-09-14T01:49:48.792Z,23.4
2018-09-14T01:50:58.526Z,23.25
2018-09-14T01:52:07.954Z,23.27
2018-09-14T01:53:16.870Z,23.28
2018-09-14T01:54:26.297Z,23.28
2018-09-14T01:55:35.469Z,23.25
2018-09-14T01:56:44.897Z,23.25
2018-09-14T01:57:54.071Z,23.27
2018-09-14T01:59:02.988Z,23.42
2018-09-14T02:00:12.926Z,23.22
2018-09-14T02:01:22.133Z,23.27
2018-09-14T02:02:31.933Z,23.39
2018-09-14T02:03:40.850Z,23.38
2018-09-14T02:04:50.295Z,23.39
2018-09-14T02:05:59.765Z,23.42
2018-09-14T02:07:08.928Z,23.25
2018-09-14T02:08:18.355Z,23.39
2018-09-14T02:09:27.779Z,23.4
2018-09-14T02:10:36.952Z,23.36
2018-09-14T02:11:46.666Z,23.39
2018-09-14T02:12:56.093Z,23.39
2018-09-14T02:14:05.280Z,23.27
2018-09-14T02:15:14.455Z,23.4
2018-09-14T02:16:23.638Z,23.39
2018-09-14T02:17:32.573Z,23.31
2018-09-14T02:18:41.795Z,23.31
2018-09-14T02:19:51.216Z,23.32
2018-09-14T02:21:00.910Z,23.28
2018-09-14T02:22:09.814Z,23.28
2018-09-14T02:23:19.250Z,23.27
2018-09-14T02:24:28.678Z,23.23
2018-09-14T02:25:38.582Z,23.27
2018-09-14T02:26:47.893Z,23.22
2018-09-14T02:27:57.577Z,23.31
2018-09-14T02:29:06.742Z,23.27
2018-09-14T02:30:16.177Z,23.28
2018-09-14T02:31:26.324Z,23.27
2018-09-14T02:32:36.021Z,23.23
2018-09-14T02:33:45.195Z,23.22
2018-09-14T02:34:55.156Z,23.12
2018-09-14T02:36:04.849Z,23.25
2018-09-14T02:37:14.530Z,23.23
2018-09-14T02:38:24.231Z,23.23
2018-09-14T02:39:33.398Z,23.23
2018-09-14T02:40:43.341Z,23.2
2018-09-14T02:41:52.516Z,23.2
2018-09-14T02:43:01.956Z,23.07
2018-09-14T02:44:11.633Z,23.13
2018-09-14T02:45:20.811Z,23.12
2018-09-14T02:46:30.495Z,23.12
2018-09-14T02:47:39.941Z,23.15
2018-09-14T02:48:49.111Z,23.1
2018-09-14T02:49:58.783Z,23.16
2018-09-14T02:51:07.955Z,23.1
2018-09-14T02:52:17.658Z,23.05
2018-09-14T02:53:27.336Z,23.09
2018-09-14T02:54:36.482Z,23.07
2018-09-14T02:55:45.935Z,22.98
2018-09-14T02:56:54.841Z,23.05
2018-09-14T02:58:04.082Z,23.04
2018-09-14T03:01:38.867Z,23.05
2018-09-14T03:02:48.281Z,23.01
2018-09-14T03:03:58.214Z,23.02
2018-09-14T03:05:07.906Z,23.07
2018-09-14T03:06:17.343Z,23
2018-09-14T03:07:27.022Z,22.98
2018-09-14T03:08:36.456Z,23.04
2018-09-14T03:09:45.893Z,23
2018-09-14T03:10:55.763Z,23.1
2018-09-14T03:12:05.174Z,23.01
2018-09-14T03:13:14.354Z,22.97
2018-09-14T03:14:23.796Z,23.1
2018-09-14T03:15:33.222Z,23.04
2018-09-14T03:16:42.914Z,23
2018-09-14T03:17:52.351Z,23
2018-09-14T03:19:02.067Z,23.04
2018-09-14T03:20:11.236Z,22.98
2018-09-14T03:21:20.412Z,23
2018-09-14T03:22:30.368Z,23.01
2018-09-14T03:23:40.052Z,22.98
2018-09-14T03:24:49.489Z,22.95
2018-09-14T03:25:58.919Z,22.97
2018-09-14T03:27:08.109Z,22.95
2018-09-14T03:28:17.534Z,22.9
2018-09-14T03:29:26.976Z,22.95
2018-09-14T03:30:36.397Z,22.95
2018-09-14T03:31:45.837Z,22.9
2018-09-14T03:32:55.713Z,22.92
2018-09-14T03:34:05.142Z,22.91
2018-09-14T03:35:14.828Z,22.95
2018-09-14T03:36:24.244Z,22.98
2018-09-14T03:37:33.204Z,22.92
2018-09-14T03:38:42.642Z,22.98
2018-09-14T03:39:51.846Z,23
2018-09-14T03:41:01.010Z,22.97
2018-09-14T03:42:10.419Z,23.02
2018-09-14T03:43:19.580Z,22.98
2018-09-14T03:44:29.268Z,23.02
2018-09-14T03:45:38.942Z,22.98
2018-09-14T03:46:48.889Z,23.02
2018-09-14T03:47:58.067Z,23.01
2018-09-14T03:49:07.762Z,23.04
2018-09-14T03:50:16.926Z,23.07
2018-09-14T03:51:26.911Z,23.02
2018-09-14T03:52:36.614Z,23.04
2018-09-14T03:53:45.782Z,23.09
2018-09-14T03:54:55.545Z,23.1
2018-09-14T03:56:05.185Z,23.09
2018-09-14T03:57:14.928Z,23.05
2018-09-14T03:58:24.149Z,23.05
2018-09-14T03:59:33.859Z,22.98
2018-09-14T04:00:43.075Z,23.02
2018-09-14T04:01:53.035Z,23.05
2018-09-14T04:03:02.471Z,23.1
2018-09-14T04:04:11.899Z,23
2018-09-14T04:05:20.827Z,23.1
2018-09-14T04:06:30.015Z,23.1
2018-09-14T04:07:39.513Z,23.09
2018-09-14T04:08:49.611Z,23.01
2018-09-14T04:09:59.308Z,23.05
2018-09-14T04:11:08.466Z,23.09
2018-09-14T04:12:17.388Z,23.07
2018-09-14T04:13:27.076Z,23.05
2018-09-14T04:14:36.540Z,23.04
2018-09-14T04:15:45.969Z,22.98
2018-09-14T04:16:55.397Z,23.07
2018-09-14T04:18:05.134Z,23.01
2018-09-14T04:19:15.077Z,23.05
2018-09-14T04:20:24.788Z,23.01
2018-09-14T04:21:33.975Z,22.98
2018-09-14T04:22:43.672Z,23.09
2018-09-14T04:23:52.630Z,23.05
2018-09-14T04:25:02.050Z,23.01
2018-09-14T04:26:11.773Z,23.04
2018-09-14T04:27:20.950Z,23
2018-09-14T04:28:30.959Z,23.02
2018-09-14T04:29:40.395Z,23.05
2018-09-14T04:30:49.334Z,23.04
2018-09-14T04:31:59.438Z,23.05
2018-09-14T04:33:09.214Z,23.1
2018-09-14T04:34:18.761Z,23.05
2018-09-14T04:35:27.943Z,23.04
2018-09-14T04:36:37.883Z,23.01
2018-09-14T04:37:47.573Z,22.98
2018-09-14T04:38:57.265Z,23.01
2018-09-14T04:40:06.200Z,23.05
2018-09-14T04:41:15.422Z,23.04
2018-09-14T04:42:25.383Z,23.07
2018-09-14T04:43:34.828Z,23.05
2018-09-14T04:44:44.516Z,23
2018-09-14T04:45:54.025Z,23.02
2018-09-14T04:47:03.203Z,23.01
2018-09-14T04:48:12.692Z,22.97
2018-09-14T04:49:22.792Z,22.98
2018-09-14T04:50:31.978Z,23.01
2018-09-14T04:51:41.666Z,22.98
2018-09-14T04:52:50.903Z,22.94
2018-09-14T04:54:00.606Z,23.01
2018-09-14T04:55:09.843Z,23
2018-09-14T04:56:19.573Z,23.01
2018-09-14T04:57:29.183Z,23.02
2018-09-14T04:58:39.600Z,23.02
2018-09-14T04:59:49.304Z,23.05
2018-09-14T05:00:59.004Z,23.01
2018-09-14T05:02:08.989Z,23.07
2018-09-14T05:03:18.888Z,23.09
2018-09-14T05:04:28.757Z,23.09
2018-09-14T05:05:37.941Z,23.05
2018-09-14T05:06:47.903Z,23.05
2018-09-14T05:07:57.078Z,23.07
2018-09-14T05:09:05.728Z,23.16
2018-09-14T05:10:15.671Z,23.02
2018-09-14T05:11:25.083Z,23.09
2018-09-14T05:12:34.013Z,23.02
2018-09-14T05:13:43.695Z,23.12
2018-09-14T05:14:52.351Z,23.05
2018-09-14T05:16:01.771Z,23.04
2018-09-14T05:17:10.711Z,23.07
2018-09-14T05:18:20.401Z,23.1
2018-09-14T05:19:30.107Z,23.05
2018-09-14T05:20:39.270Z,23.17
2018-09-14T05:21:48.437Z,23.13
2018-09-14T05:22:57.591Z,23.17
2018-09-14T05:24:06.792Z,23.09
2018-09-14T05:25:16.500Z,23.19
2018-09-14T05:26:25.922Z,23.09
2018-09-14T05:27:35.425Z,23.17
2018-09-14T05:28:45.124Z,23.16
2018-09-14T05:29:54.311Z,23.16
2018-09-14T05:31:03.767Z,23.17
2018-09-14T05:32:13.039Z,23.17
2018-09-14T05:33:22.762Z,23.19
2018-09-14T05:34:32.201Z,23.17
2018-09-14T05:35:41.397Z,23.2
2018-09-14T05:36:51.812Z,23.19
2018-09-14T05:38:01.244Z,23.23
2018-09-14T05:39:10.707Z,23.23
2018-09-14T05:40:19.878Z,23.28
2018-09-14T05:41:29.333Z,23.17
2018-09-14T05:42:39.040Z,23.16
2018-09-14T05:43:48.745Z,23.12
2018-09-14T05:44:57.953Z,23.2
2018-09-14T05:46:07.669Z,23.17
2018-09-14T05:47:17.106Z,23.16
2018-09-14T05:48:26.867Z,23.28
2018-09-14T05:49:36.560Z,23.23
2018-09-14T05:50:46.257Z,23.31
2018-09-14T05:51:55.418Z,23.27
2018-09-14T05:53:04.391Z,23.23
2018-09-14T05:54:13.811Z,23.23
2018-09-14T05:55:23.828Z,23.27
2018-09-14T05:56:33.281Z,23.23
2018-09-14T05:57:43.421Z,23.31
2018-09-14T05:58:53.107Z,23.25
2018-09-14T06:00:02.284Z,23.27
2018-09-14T06:01:11.201Z,23.38
2018-09-14T06:02:20.639Z,23.23
2018-09-14T06:03:30.314Z,23.31
2018-09-14T06:04:39.485Z,23.38
2018-09-14T06:05:49.175Z,23.38
2018-09-14T06:06:58.869Z,23.42
2018-09-14T06:08:08.060Z,23.38
2018-09-14T06:09:16.715Z,23.35
2018-09-14T06:10:26.419Z,23.39
2018-09-14T06:11:36.127Z,23.39
2018-09-14T06:12:45.304Z,23.36
2018-09-14T06:13:55.190Z,23.4
2018-09-14T06:15:05.167Z,23.35
2018-09-14T06:16:14.856Z,23.38
2018-09-14T06:17:24.013Z,23.39
2018-09-14T06:18:33.441Z,23.35
2018-09-14T06:19:42.615Z,23.33
2018-09-14T06:20:52.042Z,23.38
2018-09-14T06:22:01.238Z,23.39
2018-09-14T06:23:11.219Z,23.36
2018-09-14T06:24:20.404Z,23.38
2018-09-14T06:25:30.390Z,23.35
2018-09-14T06:26:39.566Z,23.39
2018-09-14T06:27:49.249Z,23.39
2018-09-14T06:28:58.681Z,23.39
2018-09-14T06:30:08.642Z,23.38
2018-09-14T06:31:18.123Z,23.38
2018-09-14T06:32:27.540Z,23.33
2018-09-14T06:33:37.245Z,23.36
2018-09-14T06:34:46.169Z,23.43
2018-09-14T06:35:55.117Z,23.43
2018-09-14T06:37:04.022Z,23.39
2018-09-14T06:38:13.368Z,23.32
2018-09-14T06:39:22.898Z,23.39
2018-09-14T06:40:32.325Z,23.4
2018-09-14T06:41:41.754Z,23.4
2018-09-14T06:42:50.757Z,23.43
2018-09-14T06:44:00.724Z,23.43
2018-09-14T06:45:10.031Z,23.39
2018-09-14T06:46:19.808Z,23.47
2018-09-14T06:47:29.263Z,23.48
2018-09-14T06:48:38.716Z,23.4
2018-09-14T06:49:47.374Z,23.46
2018-09-14T06:50:56.540Z,23.36
2018-09-14T06:52:06.443Z,23.46
2018-09-14T06:53:16.116Z,23.42
2018-09-14T06:54:25.690Z,23.39
2018-09-14T06:55:35.410Z,23.48
2018-09-14T06:56:45.420Z,23.38
2018-09-14T06:57:54.873Z,23.39
2018-09-14T06:59:04.331Z,23.4
2018-09-14T07:00:14.487Z,23.4
2018-09-14T07:01:24.542Z,23.38
2018-09-14T07:02:33.967Z,23.4
2018-09-14T07:03:43.141Z,23.43
2018-09-14T07:04:52.838Z,23.46
2018-09-14T07:06:02.299Z,23.38
2018-09-14T07:07:11.214Z,23.4
2018-09-14T07:08:20.669Z,23.43
2018-09-14T07:09:29.584Z,23.48
2018-09-14T07:10:38.999Z,23.46
2018-09-14T07:11:48.699Z,23.51
2018-09-14T07:12:58.385Z,23.47
2018-09-14T07:14:08.420Z,23.46
2018-09-14T07:15:17.617Z,23.43
2018-09-14T07:16:26.807Z,23.47
2018-09-14T07:17:36.245Z,23.51
2018-09-14T07:18:45.940Z,23.39
2018-09-14T07:19:55.361Z,23.38
2018-09-14T07:21:04.139Z,23.39
2018-09-14T07:22:14.332Z,23.42
2018-09-14T07:23:24.012Z,23.43
2018-09-14T07:24:33.015Z,23.43
2018-09-14T07:25:42.925Z,23.36
2018-09-14T07:26:52.989Z,23.47
2018-09-14T07:28:02.750Z,23.43
2018-09-14T07:29:12.138Z,23.42
2018-09-14T07:30:21.801Z,23.36
2018-09-14T07:31:31.436Z,23.47
2018-09-14T07:32:40.921Z,23.4
2018-09-14T07:33:50.405Z,23.4
2018-09-14T07:35:00.075Z,23.48
2018-09-14T07:36:09.776Z,23.46
2018-09-14T07:37:19.208Z,23.43
2018-09-14T07:38:28.187Z,23.53
2018-09-14T07:39:37.603Z,23.48
2018-09-14T07:40:46.258Z,23.4
2018-09-14T07:41:56.198Z,23.46
2018-09-14T07:43:05.625Z,23.42
2018-09-14T07:44:15.061Z,23.43
2018-09-14T07:45:24.272Z,23.46
2018-09-14T07:46:33.958Z,23.5
2018-09-14T07:47:43.139Z,23.46
2018-09-14T07:48:52.842Z,23.4
2018-09-14T07:50:02.287Z,23.53
2018-09-14T07:51:11.723Z,23.57
2018-09-14T07:52:21.203Z,23.46
2018-09-14T07:53:30.930Z,23.48
2018-09-14T07:54:40.092Z,23.48
2018-09-14T07:55:49.881Z,23.46
2018-09-14T07:56:59.197Z,23.43
2018-09-14T07:58:08.876Z,23.51
2018-09-14T07:59:17.805Z,23.4
2018-09-14T08:00:26.977Z,23.47
2018-09-14T08:01:36.419Z,23.48
2018-09-14T08:02:46.109Z,23.51
2018-09-14T08:03:55.275Z,23.4
2018-09-14T08:05:05.003Z,23.48
2018-09-14T08:06:14.718Z,23.43
2018-09-14T08:07:24.017Z,23.48
2018-09-14T08:08:33.198Z,23.43
2018-09-14T08:09:42.666Z,23.4
2018-09-14T08:10:52.199Z,23.43
2018-09-14T08:12:01.963Z,23.51
2018-09-14T08:13:11.568Z,23.51
2018-09-14T08:14:21.693Z,23.48
2018-09-14T08:15:31.422Z,23.48
2018-09-14T08:16:41.405Z,23.46
2018-09-14T08:17:51.815Z,23.55
2018-09-14T08:19:01.269Z,23.51
2018-09-14T08:20:11.226Z,23.47
2018-09-14T08:21:21.586Z,23.48
2018-09-14T08:22:31.300Z,23.48
2018-09-14T08:23:41.078Z,23.48
2018-09-14T08:24:50.353Z,23.47
2018-09-14T08:26:00.062Z,23.4
2018-09-14T08:27:09.676Z,23.53
2018-09-14T08:28:19.331Z,23.5
2018-09-14T08:29:28.505Z,23.51
2018-09-14T08:30:37.693Z,23.43
2018-09-14T08:31:47.152Z,23.53
2018-09-14T08:32:56.322Z,23.51
2018-09-14T08:34:06.106Z,23.48
2018-09-14T08:35:16.052Z,23.5
2018-09-14T08:36:25.815Z,23.51
2018-09-14T08:37:34.985Z,23.55
2018-09-14T08:38:44.419Z,23.5
2018-09-14T08:39:53.834Z,23.48
2018-09-14T08:41:02.498Z,23.51
2018-09-14T08:42:12.178Z,23.5
2018-09-14T08:43:21.620Z,23.5
2018-09-14T08:44:31.088Z,23.51
2018-09-14T08:45:40.538Z,23.5
2018-09-14T08:46:49.201Z,23.5
2018-09-14T08:47:58.967Z,23.5
2018-09-14T08:49:08.619Z,23.55
2018-09-14T08:50:18.066Z,23.51
2018-09-14T08:51:27.272Z,23.5
2018-09-14T08:52:36.527Z,23.48
2018-09-14T08:53:46.938Z,23.51
2018-09-14T08:54:56.166Z,23.48
2018-09-14T08:56:05.362Z,23.53
2018-09-14T08:57:14.304Z,23.48
2018-09-14T08:58:23.296Z,23.51
2018-09-14T08:59:32.497Z,23.48
2018-09-14T09:00:41.187Z,23.46
2018-09-14T09:01:51.153Z,23.47
2018-09-14T09:03:00.106Z,23.54
2018-09-14T09:04:09.871Z,23.51
2018-09-14T09:05:18.811Z,23.48
2018-09-14T09:06:27.983Z,23.5
2018-09-14T09:07:37.659Z,23.53
2018-09-14T09:08:47.346Z,23.55
2018-09-14T09:09:56.790Z,23.5
2018-09-14T09:11:06.205Z,23.54
2018-09-14T09:12:15.123Z,23.57
2018-09-14T09:13:25.164Z,23.57
2018-09-14T09:14:34.848Z,23.53
2018-09-14T09:15:44.571Z,23.55
2018-09-14T09:16:53.748Z,23.48
2018-09-14T09:18:03.206Z,23.57
2018-09-14T09:19:12.660Z,23.55
2018-09-14T09:20:22.831Z,23.58
2018-09-14T09:21:32.250Z,23.53
2018-09-14T09:22:41.949Z,23.51
2018-09-14T09:23:51.114Z,23.58
2018-09-14T09:25:00.289Z,23.5
2018-09-14T09:26:09.224Z,23.5
2018-09-14T09:27:18.437Z,23.48
2018-09-14T09:28:28.147Z,23.53
2018-09-14T09:29:37.327Z,23.54
2018-09-14T09:30:46.844Z,23.58
2018-09-14T09:31:55.769Z,23.58
2018-09-14T09:33:05.540Z,23.51
2018-09-14T09:34:14.977Z,23.6
2018-09-14T09:35:24.470Z,23.55
2018-09-14T09:36:33.648Z,23.58
2018-09-14T09:37:42.807Z,23.5
2018-09-14T09:38:52.740Z,23.61
2018-09-14T09:40:02.170Z,23.55
2018-09-14T09:41:11.460Z,23.61
2018-09-14T09:42:21.421Z,23.61
2018-09-14T09:43:31.598Z,23.54
2018-09-14T09:44:42.009Z,23.54
2018-09-14T09:45:51.357Z,23.54
2018-09-14T09:47:01.076Z,23.55
2018-09-14T09:48:10.768Z,23.55
2018-09-14T09:49:19.437Z,23.57
2018-09-14T09:50:29.403Z,23.6
2018-09-14T09:51:39.080Z,23.57
2018-09-14T09:52:48.508Z,23.58
2018-09-14T09:53:57.677Z,23.6
2018-09-14T09:55:07.406Z,23.58
2018-09-14T09:56:16.848Z,23.58
2018-09-14T09:57:26.027Z,23.54
2018-09-14T09:58:35.478Z,23.6
2018-09-14T09:59:44.693Z,23.6
2018-09-14T10:00:54.167Z,23.61
2018-09-14T10:02:03.592Z,23.61
2018-09-14T10:03:12.760Z,23.58
2018-09-14T10:04:22.204Z,23.53
2018-09-14T10:05:31.385Z,23.6
2018-09-14T10:06:40.568Z,23.55
2018-09-14T10:07:50.518Z,23.54
2018-09-14T10:08:59.459Z,23.58
2018-09-14T10:10:09.178Z,23.57
2018-09-14T10:11:18.355Z,23.58
2018-09-14T10:12:28.058Z,23.58
2018-09-14T10:13:36.730Z,23.54
2018-09-14T10:14:46.615Z,23.58
2018-09-14T10:15:56.053Z,23.53
2018-09-14T10:17:05.491Z,23.55
2018-09-14T10:18:14.930Z,23.58
2018-09-14T10:19:23.891Z,23.61
2018-09-14T10:20:33.373Z,23.63
2018-09-14T10:21:43.589Z,23.6
2018-09-14T10:22:52.994Z,23.57
2018-09-14T10:24:02.416Z,23.58
2018-09-14T10:25:11.849Z,23.58
2018-09-14T10:26:21.845Z,23.6
2018-09-14T10:27:31.069Z,23.57
2018-09-14T10:28:40.245Z,23.58
2018-09-14T10:29:49.721Z,23.65
2018-09-14T10:30:58.879Z,23.57
2018-09-14T10:32:08.366Z,23.68
2018-09-14T10:33:18.044Z,23.69
2018-09-14T10:34:27.736Z,23.54
2018-09-14T10:35:37.432Z,23.55
2018-09-14T10:36:47.116Z,23.58
2018-09-14T10:37:56.835Z,23.68
2018-09-14T10:39:06.302Z,23.54
2018-09-14T10:40:15.734Z,23.58
2018-09-14T10:41:24.923Z,23.6
2018-09-14T10:42:34.100Z,23.65
2018-09-14T10:43:43.548Z,23.69
2018-09-14T10:44:52.260Z,23.54
2018-09-14T10:46:01.964Z,23.6
2018-09-14T10:47:10.863Z,23.57
2018-09-14T10:48:19.783Z,23.68
2018-09-14T10:49:29.226Z,23.63
2018-09-14T10:50:38.648Z,23.66
2018-09-14T10:51:47.799Z,23.66
2018-09-14T10:52:56.975Z,23.63
2018-09-14T10:54:06.474Z,23.53
2018-09-14T10:55:15.452Z,23.57
2018-09-14T10:56:25.635Z,23.65
2018-09-14T10:57:35.098Z,23.55
2018-09-14T10:58:45.046Z,23.55
2018-09-14T10:59:54.759Z,23.66
2018-09-14T11:01:04.695Z,23.61
2018-09-14T11:02:14.104Z,23.61
2018-09-14T11:03:23.278Z,23.69
2018-09-14T11:04:32.704Z,23.68
2018-09-14T11:05:41.844Z,23.61
2018-09-14T11:06:51.547Z,23.63
2018-09-14T11:08:01.389Z,23.57
2018-09-14T11:09:11.343Z,23.65
2018-09-14T11:10:20.762Z,23.61
2018-09-14T11:11:30.195Z,23.61
2018-09-14T11:12:40.154Z,23.63
2018-09-14T11:13:49.930Z,23.66
2018-09-14T11:14:59.368Z,23.58
2018-09-14T11:16:08.812Z,23.55
2018-09-14T11:17:18.524Z,23.63
2018-09-14T11:18:28.227Z,23.65
2018-09-14T11:19:37.767Z,23.65
2018-09-14T11:20:46.683Z,23.66
2018-09-14T11:21:56.384Z,23.66
2018-09-14T11:23:05.534Z,23.65
2018-09-14T11:24:15.226Z,23.58
2018-09-14T11:25:24.436Z,23.66
2018-09-14T11:26:34.145Z,23.58
2018-09-14T11:27:43.666Z,23.61
2018-09-14T11:28:52.928Z,23.55
2018-09-14T11:30:02.359Z,23.65
2018-09-14T11:31:12.044Z,23.61
2018-09-14T11:32:21.894Z,23.58
2018-09-14T11:33:31.858Z,23.6
2018-09-14T11:34:41.321Z,23.6
2018-09-14T11:35:50.488Z,23.6
2018-09-14T11:36:59.385Z,23.55
2018-09-14T11:38:08.917Z,23.58
2018-09-14T11:39:18.762Z,23.65
2018-09-14T11:40:28.212Z,23.54
2018-09-14T11:41:38.168Z,23.63
2018-09-14T11:42:47.321Z,23.63
2018-09-14T11:43:56.241Z,23.6
2018-09-14T11:45:06.413Z,23.69
2018-09-14T11:46:16.595Z,23.6
2018-09-14T11:47:26.982Z,23.6
2018-09-14T11:48:36.656Z,23.65
2018-09-14T11:49:45.853Z,23.68
2018-09-14T11:50:55.299Z,23.65
2018-09-14T11:52:04.236Z,23.54
2018-09-14T11:53:13.409Z,23.6
2018-09-14T11:54:23.391Z,23.65
2018-09-14T11:55:32.921Z,23.68
2018-09-14T11:56:42.445Z,23.65
2018-09-14T11:57:51.923Z,23.63
2018-09-14T11:59:01.101Z,23.6
2018-09-14T12:00:11.075Z,23.63
2018-09-14T12:01:21.024Z,23.66
2018-09-14T12:02:31.046Z,23.65
2018-09-14T12:03:40.294Z,23.63
2018-09-14T12:04:50.033Z,23.6
2018-09-14T12:05:59.515Z,23.6
2018-09-14T12:07:08.974Z,23.66
2018-09-14T12:08:18.780Z,23.66
2018-09-14T12:09:28.007Z,23.61
2018-09-14T12:10:37.212Z,23.65
2018-09-14T12:11:46.394Z,23.66
2018-09-14T12:12:55.358Z,23.63
2018-09-14T12:14:04.974Z,23.6
2018-09-14T12:15:14.585Z,23.68
2018-09-14T12:16:24.123Z,23.6
2018-09-14T12:17:33.613Z,23.63
2018-09-14T12:18:43.140Z,23.61
2018-09-14T12:19:52.589Z,23.63
2018-09-14T12:21:01.299Z,23.65
2018-09-14T12:22:11.448Z,23.66
2018-09-14T12:23:21.026Z,23.72
2018-09-14T12:24:30.537Z,23.65
2018-09-14T12:25:40.037Z,23.66
2018-09-14T12:26:49.498Z,23.69
2018-09-14T12:27:59.234Z,23.69
2018-09-14T12:29:08.960Z,23.66
2018-09-14T12:30:17.906Z,23.57
2018-09-14T12:31:27.629Z,23.63
2018-09-14T12:32:36.896Z,23.68
2018-09-14T12:33:46.340Z,23.66
2018-09-14T12:34:55.792Z,23.61
2018-09-14T12:36:05.246Z,23.65
2018-09-14T12:37:14.725Z,23.69
2018-09-14T12:38:24.449Z,23.63
2018-09-14T12:39:33.449Z,23.7
2018-09-14T12:40:43.194Z,23.63
2018-09-14T12:41:53.134Z,23.68
2018-09-14T12:43:02.865Z,23.7
2018-09-14T12:44:12.062Z,23.7
2018-09-14T12:45:21.551Z,23.73
2018-09-14T12:46:31.307Z,23.7
2018-09-14T12:47:40.242Z,23.73
2018-09-14T12:48:49.860Z,23.73
2018-09-14T12:49:59.359Z,23.75
2018-09-14T12:51:08.802Z,23.7
2018-09-14T12:52:18.315Z,23.69
2018-09-14T12:53:27.410Z,23.68
2018-09-14T12:54:36.628Z,23.8
2018-09-14T12:55:45.879Z,23.72
2018-09-14T12:56:55.833Z,23.75
2018-09-14T12:58:05.360Z,23.73
2018-09-14T12:59:14.859Z,23.69
2018-09-14T13:00:24.372Z,23.66
2018-09-14T13:01:33.759Z,23.76
2018-09-14T13:02:42.951Z,23.7
2018-09-14T13:03:52.416Z,23.72
2018-09-14T13:05:01.906Z,23.7
2018-09-14T13:06:11.142Z,23.79
2018-09-14T13:07:20.835Z,23.76
2018-09-14T13:08:30.544Z,23.66
2018-09-14T13:09:39.805Z,23.68
2018-09-14T13:10:49.059Z,23.83
2018-09-14T13:11:58.441Z,23.75
2018-09-14T13:13:08.196Z,23.83
2018-09-14T13:14:17.980Z,23.69
2018-09-14T13:15:27.478Z,23.72
2018-09-14T13:16:37.272Z,23.88
2018-09-14T13:17:46.551Z,23.73
2018-09-14T13:18:56.588Z,23.78
2018-09-14T13:20:07.128Z,23.78
2018-09-14T13:21:16.573Z,23.78
2018-09-14T13:22:26.400Z,23.78
2018-09-14T13:23:35.612Z,23.73
2018-09-14T13:24:44.827Z,23.79
2018-09-14T13:25:54.278Z,23.8
2018-09-14T13:27:03.479Z,23.73
2018-09-14T13:28:13.215Z,23.72
2018-09-14T13:29:22.927Z,23.76
2018-09-14T13:30:32.783Z,23.76
2018-09-14T13:31:42.687Z,23.76
2018-09-14T13:32:51.369Z,23.72
2018-09-14T13:34:01.072Z,23.72
2018-09-14T13:35:11.028Z,23.76
2018-09-14T13:36:19.933Z,23.79
2018-09-14T13:37:29.434Z,23.78
2018-09-14T13:38:38.867Z,23.78
2018-09-14T13:39:48.285Z,23.83
2018-09-14T13:40:57.969Z,23.83
2018-09-14T13:42:07.735Z,23.85
2018-09-14T13:43:17.164Z,23.75
2018-09-14T13:44:26.908Z,23.79
2018-09-14T13:45:36.839Z,23.69
2018-09-14T13:46:46.537Z,23.85
2018-09-14T13:47:56.218Z,23.72
2018-09-14T13:49:05.145Z,23.83
2018-09-14T13:50:14.413Z,23.76
2018-09-14T13:51:24.372Z,23.78
2018-09-14T13:52:33.530Z,23.78
2018-09-14T13:53:42.948Z,23.78
2018-09-14T13:54:52.361Z,23.83
2018-09-14T13:56:01.535Z,23.84
2018-09-14T13:57:10.955Z,23.8
2018-09-14T13:58:19.891Z,23.85
2018-09-14T13:59:28.810Z,23.83
2018-09-14T14:00:38.340Z,23.79
2018-09-14T14:01:48.051Z,23.75
2018-09-14T14:02:57.563Z,23.83
2018-09-14T14:04:06.757Z,23.83
2018-09-14T14:05:16.054Z,23.85
2018-09-14T14:06:24.979Z,23.8
2018-09-14T14:07:34.676Z,23.85
2018-09-14T14:08:43.895Z,23.75
2018-09-14T14:09:53.912Z,23.83
2018-09-14T14:11:03.082Z,23.76
2018-09-14T14:12:12.014Z,23.79
2018-09-14T14:13:21.446Z,23.79
2018-09-14T14:14:30.895Z,23.9
2018-09-14T14:15:39.793Z,23.88
2018-09-14T14:16:49.879Z,23.88
2018-09-14T14:17:59.882Z,23.9
2018-09-14T14:19:09.300Z,23.87
2018-09-14T14:20:18.505Z,23.88
2018-09-14T14:21:28.448Z,23.8
2018-09-14T14:22:37.724Z,23.83
2018-09-14T14:23:46.897Z,23.91
2018-09-14T14:24:56.121Z,23.85
2018-09-14T14:26:05.821Z,23.9
2018-09-14T14:27:15.514Z,23.85
2018-09-14T14:28:25.074Z,23.83
2018-09-14T14:29:34.547Z,23.9
2018-09-14T14:30:43.978Z,23.8
2018-09-14T14:31:53.666Z,23.88
2018-09-14T14:33:03.369Z,23.84
2018-09-14T14:34:12.293Z,23.87
2018-09-14T14:35:22.003Z,23.78
2018-09-14T14:36:31.190Z,23.79
2018-09-14T14:37:40.647Z,23.88
2018-09-14T14:38:50.326Z,23.84
2018-09-14T14:39:59.251Z,23.79
2018-09-14T14:41:09.005Z,23.83
2018-09-14T14:42:18.477Z,23.87
2018-09-14T14:43:27.927Z,23.79
2018-09-14T14:44:37.365Z,23.88
2018-09-14T14:45:47.066Z,23.8
2018-09-14T14:46:56.234Z,23.79
2018-09-14T14:48:05.673Z,23.79
2018-09-14T14:49:14.920Z,23.83
2018-09-14T14:50:23.836Z,23.83
2018-09-14T14:51:32.732Z,23.75
2018-09-14T14:52:42.423Z,23.78
2018-09-14T14:53:52.091Z,23.8
2018-09-14T14:55:01.525Z,23.73
2018-09-14T14:56:11.364Z,23.75
2018-09-14T14:57:20.542Z,23.68
2018-09-14T14:58:30.261Z,23.8
2018-09-14T14:59:39.444Z,23.8
2018-09-14T15:00:48.927Z,23.73
2018-09-14T15:01:58.401Z,23.79
2018-09-14T15:03:07.852Z,23.72